Time;durP1;ratioP1;P1;durP2;ratioP2;P2;SDS_P1;SDS_P2;PMS_P1;PMS_P2;Temp;Humidity;BMP_temperature;BMP_pressure;BME280_temperature;BME280_humidity;BME280_pressure;Samples;Min_cycle;Max_cycle;Signal;HPM_P1;HPM_P2
2023/08/05 00:00:04;;;;;;;7.90;5.18;;;;;;;13.34;100.00;101497.66;5114642;28;20458;-51
2023/08/05 00:02:29;;;;;;;6.82;5.30;;;;;;;13.75;100.00;101567.69;5079753;28;20092;-51
2023/08/05 00:04:55;;;;;;;7.05;4.97;;;;;;;13.33;100.00;101510.06;5114730;28;20074;-49
2023/08/05 00:07:20;;;;;;;8.35;6.22;;;;;;;13.74;100.00;101577.44;5108045;28;20044;-54
2023/08/05 00:09:46;;;;;;;8.48;6.00;;;;;;;13.74;100.00;101580.09;5114537;28;20043;-58
2023/08/05 00:12:11;;;;;;;8.52;5.75;;;;;;;13.84;100.00;101578.84;5114852;28;20274;-56
2023/08/05 00:14:37;;;;;;;6.53;5.35;;;;;;;13.49;100.00;101505.97;5114527;28;20031;-49
2023/08/05 00:17:02;;;;;;;8.43;5.38;;;;;;;14.01;100.00;101580.91;5114333;28;20027;-57
2023/08/05 00:19:27;;;;;;;6.97;5.70;;;;;;;14.08;100.00;101570.06;5114521;28;20032;-53
2023/08/05 00:21:53;;;;;;;7.20;5.07;;;;;;;14.03;100.00;101548.19;5114069;28;20088;-51
2023/08/05 00:24:18;;;;;;;8.23;5.30;;;;;;;14.21;100.00;101567.84;5113226;28;20131;-53
2023/08/05 00:26:43;;;;;;;8.35;5.50;;;;;;;14.28;100.00;101565.81;5079020;28;20043;-54
2023/08/05 00:29:09;;;;;;;8.73;6.05;;;;;;;14.33;100.00;101558.63;5114133;28;20464;-51
2023/08/05 00:31:34;;;;;;;5.43;4.80;;;;;;;13.96;100.00;101483.16;5114106;28;20036;-48
2023/08/05 00:33:59;;;;;;;6.85;5.43;;;;;;;14.45;100.00;101561.69;5113912;28;20478;-58
2023/08/05 00:36:25;;;;;;;6.18;5.38;;;;;;;14.06;100.00;101486.34;5114178;28;20031;-50
2023/08/05 00:38:50;;;;;;;7.32;5.53;;;;;;;14.53;100.00;101541.09;5113951;28;20406;-46
2023/08/05 00:41:15;;;;;;;7.57;5.55;;;;;;;14.28;100.00;101486.38;5112567;28;20521;-55
2023/08/05 00:43:41;;;;;;;8.40;5.80;;;;;;;14.08;100.00;101453.59;5113910;28;20046;-48
2023/08/05 00:46:08;;;;;;;8.90;5.80;;;;;;;14.46;100.00;101506.94;5113996;28;20081;-56
2023/08/05 00:48:33;;;;;;;9.55;6.43;;;;;;;14.54;100.00;101515.44;5095836;28;20046;-56
2023/08/05 00:50:59;;;;;;;10.20;6.53;;;;;;;14.24;100.00;101463.59;5095417;28;20043;-47
2023/08/05 00:53:25;;;;;;;8.27;6.30;;;;;;;14.72;100.00;101535.06;5113569;28;20036;-54
2023/08/05 00:55:52;;;;;;;9.25;5.93;;;;;;;14.50;100.00;101487.34;5113394;28;20035;-53
2023/08/05 00:58:19;;;;;;;9.38;6.78;;;;;;;14.82;100.00;101536.47;5083105;28;20097;-52
2023/08/05 01:00:44;;;;;;;10.68;6.93;;;;;;;14.58;100.00;101479.97;5092430;28;20028;-55
2023/08/05 01:03:09;;;;;;;8.25;6.47;;;;;;;14.95;100.00;101543.00;5093062;28;20070;-55
2023/08/05 01:05:37;;;;;;;10.63;6.93;;;;;;;14.86;100.00;101528.31;5093237;28;20032;-50
2023/08/05 01:08:03;;;;;;;10.35;6.80;;;;;;;14.59;100.00;101463.16;5092970;28;20043;-51
2023/08/05 01:10:28;;;;;;;8.20;6.72;;;;;;;15.03;100.00;101547.06;5075133;28;20036;-52
2023/08/05 01:12:54;;;;;;;9.23;6.68;;;;;;;15.06;100.00;101540.81;5092857;28;20458;-56
2023/08/05 01:15:19;;;;;;;8.27;6.68;;;;;;;15.08;100.00;101545.13;5113409;28;20119;-51
2023/08/05 01:17:44;;;;;;;13.65;6.75;;;;;;;15.07;100.00;101532.78;5113289;28;20511;-49
2023/08/05 01:20:11;;;;;;;8.88;7.22;;;;;;;15.05;100.00;101521.38;5113178;28;20035;-49
2023/08/05 01:22:41;;;;;;;7.95;6.97;;;;;;;15.11;100.00;101528.22;5094505;28;20040;-53
2023/08/05 01:25:15;;;;;;;8.13;7.18;;;;;;;15.09;100.00;101520.31;5113029;28;20049;-49
2023/08/05 01:27:41;;;;;;;10.00;6.82;;;;;;;15.12;100.00;101521.97;5113214;28;20036;-49
2023/08/05 01:30:07;;;;;;;9.45;6.60;;;;;;;15.11;100.00;101515.84;5082514;28;20059;-53
2023/08/05 01:32:33;;;;;;;8.50;6.45;;;;;;;14.80;100.00;101464.94;5091508;28;20047;-58
2023/08/05 01:34:59;;;;;;;9.13;7.88;;;;;;;15.09;100.00;101498.25;5074608;28;20036;-50
2023/08/05 01:37:25;;;;;;;9.25;6.60;;;;;;;15.16;100.00;101515.63;5092561;28;20042;-53
2023/08/05 01:39:50;;;;;;;7.72;6.63;;;;;;;15.16;100.00;101516.50;5092473;28;20039;-49
2023/08/05 01:42:15;;;;;;;11.73;6.78;;;;;;;15.13;100.00;101508.66;5092449;28;20055;-52
2023/08/05 01:44:40;;;;;;;9.13;7.47;;;;;;;15.13;100.00;101513.97;5092380;28;20119;-49
2023/08/05 01:47:06;;;;;;;9.25;6.80;;;;;;;14.74;100.00;101454.59;5107962;28;20082;-51
2023/08/05 01:49:31;;;;;;;10.73;6.20;;;;;;;14.70;100.00;101439.75;5112837;28;20434;-51
2023/08/05 01:51:56;;;;;;;7.20;6.50;;;;;;;14.64;100.00;101427.63;5112724;28;20497;-50
2023/08/05 01:54:22;;;;;;;8.27;6.88;;;;;;;15.08;100.00;101496.53;5112657;28;20035;-56
2023/08/05 01:56:47;;;;;;;7.50;6.80;;;;;;;15.09;100.00;101496.44;5094249;28;20035;-50
2023/08/05 01:59:12;;;;;;;10.35;7.75;;;;;;;14.75;100.00;101437.78;5112965;28;20050;-50
2023/08/05 02:01:43;;;;;;;10.10;6.53;;;;;;;14.68;100.00;101423.06;5093236;28;20043;-54
2023/08/05 02:04:08;;;;;;;11.17;7.37;;;;;;;15.02;100.00;101487.03;5112635;28;20054;-55
2023/08/05 02:06:33;;;;;;;11.52;6.75;;;;;;;14.73;100.00;101441.41;5112449;28;20478;-50
2023/08/05 02:08:59;;;;;;;7.95;6.10;;;;;;;15.13;100.00;101500.72;5112354;28;20047;-55
2023/08/05 02:11:24;;;;;;;10.43;7.38;;;;;;;15.13;100.00;101500.72;5112546;28;20172;-52
2023/08/05 02:13:49;;;;;;;7.90;6.47;;;;;;;14.65;100.00;101415.22;5118797;28;20417;-49
2023/08/05 02:16:14;;;;;;;8.98;6.60;;;;;;;15.14;100.00;101489.19;5118812;28;20469;-53
2023/08/05 02:18:40;;;;;;;9.45;6.68;;;;;;;15.12;100.00;101496.31;5118097;28;20042;-51
2023/08/05 02:21:05;;;;;;;7.53;6.38;;;;;;;14.49;100.00;101395.56;5119251;28;20027;-50
2023/08/05 02:23:30;;;;;;;8.10;6.82;;;;;;;14.66;100.00;101422.22;5118806;28;20062;-50
2023/08/05 02:25:56;;;;;;;8.23;6.30;;;;;;;15.05;100.00;101480.75;5118994;28;20028;-50
2023/08/05 02:28:21;;;;;;;7.25;6.43;;;;;;;14.99;100.00;101468.59;5119206;28;20043;-54
2023/08/05 02:30:46;;;;;;;6.97;6.20;;;;;;;14.53;100.00;101399.81;5119249;28;20061;-51
2023/08/05 02:33:11;;;;;;;13.43;7.25;;;;;;;14.93;100.00;101454.72;5118006;28;20035;-55
2023/08/05 02:35:37;;;;;;;9.00;6.68;;;;;;;14.88;100.00;101449.63;5118997;28;20024;-55
2023/08/05 02:38:02;;;;;;;10.85;7.18;;;;;;;14.76;100.00;101430.69;5118934;28;20047;-53
2023/08/05 02:40:31;;;;;;;8.35;6.25;;;;;;;14.79;100.00;101441.16;5118893;28;20123;-52
2023/08/05 02:42:56;;;;;;;7.80;5.53;;;;;;;14.36;100.00;101376.63;5118771;28;20028;-56
2023/08/05 02:45:22;;;;;;;8.27;6.07;;;;;;;14.40;100.00;101382.66;5119406;28;20160;-53
2023/08/05 02:47:47;;;;;;;8.30;6.40;;;;;;;14.76;100.00;101439.50;5118956;28;20040;-55
2023/08/05 02:50:13;;;;;;;8.85;6.40;;;;;;;14.72;100.00;101435.25;5101397;28;20040;-52
2023/08/05 02:52:38;;;;;;;9.73;5.75;;;;;;;14.68;100.00;101438.97;5080209;28;20047;-53
2023/08/05 02:55:04;;;;;;;7.57;6.30;;;;;;;14.64;100.00;101432.03;5080251;28;20504;-50
2023/08/05 02:57:30;;;;;;;9.27;6.95;;;;;;;14.61;100.00;101426.88;5098215;28;20449;-54
2023/08/05 02:59:55;;;;;;;8.00;5.78;;;;;;;14.58;100.00;101427.84;5098475;28;20032;-47
2023/08/05 03:02:20;;;;;;;6.90;5.20;;;;;;;14.11;100.00;101338.75;5094519;28;20105;-52
2023/08/05 03:04:46;;;;;;;9.98;5.80;;;;;;;14.52;100.00;101420.13;5116646;28;20114;-49
2023/08/05 03:07:11;;;;;;;8.95;6.03;;;;;;;14.40;100.00;101396.78;5109454;28;20501;-51
2023/08/05 03:09:36;;;;;;;8.35;6.40;;;;;;;14.03;100.00;101331.13;5106056;28;20069;-49
2023/08/05 03:12:06;;;;;;;7.32;5.47;;;;;;;14.16;100.00;101354.47;5105573;28;20028;-54
2023/08/05 03:14:32;;;;;;;9.43;6.13;;;;;;;14.03;100.00;101335.56;5098880;28;20485;-48
2023/08/05 03:16:57;;;;;;;11.10;6.32;;;;;;;14.21;100.00;101363.09;5085374;28;20036;-53
2023/08/05 03:19:22;;;;;;;7.80;6.38;;;;;;;14.52;100.00;101417.50;5117859;28;20032;-50
2023/08/05 03:21:48;;;;;;;7.72;6.05;;;;;;;14.52;100.00;101409.53;5115166;28;20023;-52
2023/08/05 03:24:13;;;;;;;7.95;6.65;;;;;;;14.51;100.00;101414.88;5104727;28;20039;-53
2023/08/05 03:26:38;;;;;;;7.53;6.15;;;;;;;14.00;100.00;101319.78;5083066;28;20040;-58
2023/08/05 03:29:04;;;;;;;8.07;5.82;;;;;;;14.51;100.00;101410.47;5101570;28;20046;-51
2023/08/05 03:31:30;;;;;;;9.15;5.93;;;;;;;14.09;100.00;101337.97;5095855;28;20040;-53
2023/08/05 03:33:55;;;;;;;10.75;6.60;;;;;;;14.51;100.00;101399.00;5101603;28;20059;-55
2023/08/05 03:36:20;;;;;;;9.10;6.55;;;;;;;14.54;100.00;101398.88;5096331;28;20437;-51
2023/08/05 03:38:45;;;;;;;10.48;6.45;;;;;;;14.53;100.00;101395.38;5097785;28;20501;-52
2023/08/05 03:41:11;;;;;;;8.73;6.50;;;;;;;14.55;100.00;101392.66;5110154;28;20032;-50
2023/08/05 03:43:36;;;;;;;7.90;6.25;;;;;;;14.00;100.00;101282.75;5093006;28;20031;-56
2023/08/05 03:46:02;;;;;;;12.20;6.95;;;;;;;14.55;100.00;101368.81;5076383;28;20038;-55
2023/08/05 03:48:27;;;;;;;7.93;6.80;;;;;;;14.58;100.00;101366.03;5096140;28;20071;-49
2023/08/05 03:50:52;;;;;;;9.18;6.65;;;;;;;14.52;100.00;101359.22;5075925;28;20043;-51
2023/08/05 03:53:18;;;;;;;13.13;7.07;;;;;;;14.17;100.00;101290.88;5112449;28;20410;-56
2023/08/05 03:55:43;;;;;;;8.02;7.20;;;;;;;14.56;100.00;101360.78;5111662;28;20429;-50
2023/08/05 03:58:08;;;;;;;9.40;7.20;;;;;;;14.56;100.00;101392.59;5114936;28;20499;-49
2023/08/05 04:00:36;;;;;;;10.27;7.32;;;;;;;14.19;100.00;101301.38;5114614;28;20027;-57
2023/08/05 04:03:01;;;;;;;13.88;8.75;;;;;;;14.53;100.00;101357.44;5114388;28;20524;-51
2023/08/05 04:05:27;;;;;;;11.15;7.68;;;;;;;13.93;100.00;101253.00;5115115;28;20031;-56
2023/08/05 04:07:53;;;;;;;10.15;8.25;;;;;;;14.43;100.00;101334.88;5114984;28;20043;-51
2023/08/05 04:10:21;;;;;;;10.85;8.07;;;;;;;14.15;100.00;101278.63;5113583;28;20130;-56
2023/08/05 04:12:47;;;;;;;10.25;8.32;;;;;;;14.14;100.00;101275.13;5096292;28;20028;-56
2023/08/05 04:15:13;;;;;;;11.52;7.88;;;;;;;14.26;100.00;101292.28;5114663;28;20054;-50
2023/08/05 04:17:38;;;;;;;9.30;7.78;;;;;;;13.72;100.00;101200.09;5114373;28;20032;-51
2023/08/05 04:20:04;;;;;;;9.57;7.85;;;;;;;14.52;100.00;101342.44;5114494;28;20506;-52
2023/08/05 04:22:30;;;;;;;10.80;7.22;;;;;;;14.54;100.00;101330.00;5113961;28;20051;-55
2023/08/05 04:24:57;;;;;;;11.40;8.52;;;;;;;14.56;100.00;101342.25;5114550;28;20493;-49
2023/08/05 04:27:24;;;;;;;11.02;8.63;;;;;;;14.15;100.00;101257.44;5098774;28;20075;-50
2023/08/05 04:29:50;;;;;;;8.85;7.85;;;;;;;14.56;100.00;101331.66;5093886;28;20066;-50
2023/08/05 04:32:15;;;;;;;13.10;8.88;;;;;;;14.59;100.00;101320.09;5093806;28;20472;-48
2023/08/05 04:34:40;;;;;;;14.43;8.40;;;;;;;14.09;100.00;101242.69;5093629;28;20380;-49
2023/08/05 04:37:20;;;;;;;15.02;8.27;;;;;;;14.61;100.00;101337.66;5093628;28;20060;-53
2023/08/05 04:39:46;;;;;;;14.57;8.32;;;;;;;14.62;100.00;101333.22;5093817;28;20035;-50
2023/08/05 04:42:12;;;;;;;11.48;8.82;;;;;;;14.58;100.00;101329.81;5100016;28;20432;-53
2023/08/05 04:44:41;;;;;;;15.63;8.50;;;;;;;14.65;100.00;101333.09;5113876;28;20058;-53
2023/08/05 04:47:07;;;;;;;14.07;9.32;;;;;;;14.34;100.00;101264.59;5113980;28;20115;-56
2023/08/05 04:49:33;;;;;;;13.00;8.38;;;;;;;14.65;100.00;101317.19;5103751;28;20501;-51
2023/08/05 04:51:59;;;;;;;12.80;8.35;;;;;;;14.23;100.00;101229.72;5075396;28;20123;-57
2023/08/05 04:54:24;;;;;;;14.40;9.07;;;;;;;14.12;100.00;101209.91;5093430;28;20036;-56
2023/08/05 04:56:49;;;;;;;14.32;8.90;;;;;;;14.28;100.00;101226.88;5075360;28;20119;-56
2023/08/05 04:59:15;;;;;;;14.90;9.20;;;;;;;14.73;100.00;101319.50;5093323;28;20059;-51
2023/08/05 05:01:40;;;;;;;13.63;9.45;;;;;;;14.75;100.00;101302.63;5075122;28;20024;-52
2023/08/05 05:04:05;;;;;;;11.30;8.82;;;;;;;14.76;100.00;101298.19;5093021;28;20033;-52
2023/08/05 05:06:30;;;;;;;9.98;8.35;;;;;;;14.80;100.00;101302.44;5093075;28;20188;-57
2023/08/05 05:08:56;;;;;;;11.27;8.52;;;;;;;14.43;100.00;101229.78;5113541;28;20123;-50
2023/08/05 05:11:21;;;;;;;13.40;9.75;;;;;;;14.41;100.00;101222.84;5113405;28;20031;-58
2023/08/05 05:13:50;;;;;;;12.93;9.57;;;;;;;14.74;100.00;101278.84;5113374;28;20032;-54
2023/08/05 05:16:17;;;;;;;13.05;8.45;;;;;;;14.47;100.00;101212.00;5095699;28;20036;-49
2023/08/05 05:18:42;;;;;;;9.30;8.25;;;;;;;14.53;100.00;101223.19;5113312;28;20036;-52
2023/08/05 05:21:08;;;;;;;11.23;8.05;;;;;;;14.96;100.00;101283.16;5095346;28;20051;-50
2023/08/05 05:23:33;;;;;;;12.05;8.50;;;;;;;14.98;100.00;101276.00;5113136;28;20138;-51
2023/08/05 05:25:58;;;;;;;12.43;8.27;;;;;;;14.63;100.00;101207.75;5111801;28;20044;-49
2023/08/05 05:28:24;;;;;;;12.93;7.70;;;;;;;15.03;100.00;101263.38;5112633;28;20031;-55
2023/08/05 05:30:49;;;;;;;11.23;7.32;;;;;;;15.02;100.00;101252.88;5113094;28;20067;-51
2023/08/05 05:33:14;;;;;;;9.75;7.60;;;;;;;15.10;100.00;101256.91;5113168;28;20035;-50
2023/08/05 05:35:40;;;;;;;7.15;6.47;;;;;;;14.76;100.00;101189.53;5113317;28;20035;-50
2023/08/05 05:38:05;;;;;;;9.02;7.03;;;;;;;15.18;100.00;101248.59;5113167;28;20394;-49
2023/08/05 05:40:30;;;;;;;9.40;6.03;;;;;;;15.23;100.00;101249.25;5113023;28;20406;-50
2023/08/05 05:42:56;;;;;;;9.85;6.40;;;;;;;14.85;100.00;101167.94;5085594;28;20028;-51
2023/08/05 05:45:21;;;;;;;9.02;5.82;;;;;;;15.32;100.00;101237.38;5093219;28;20036;-54
2023/08/05 05:47:46;;;;;;;8.25;5.97;;;;;;;15.38;100.00;101255.66;5091825;28;20036;-49
2023/08/05 05:50:12;;;;;;;7.50;5.88;;;;;;;15.43;100.00;101243.91;5092705;28;20390;-54
2023/08/05 05:52:37;;;;;;;7.25;5.05;;;;;;;15.26;100.00;101212.00;5092601;28;20061;-50
2023/08/05 05:55:03;;;;;;;6.20;5.22;;;;;;;15.14;100.00;101189.56;5092432;28;20040;-56
2023/08/05 05:57:28;;;;;;;6.85;5.18;;;;;;;15.56;100.00;101260.13;5092368;28;20089;-49
2023/08/05 05:59:55;;;;;;;6.93;4.82;;;;;;;15.47;100.00;101237.53;5092344;28;20498;-54
2023/08/05 06:02:21;;;;;;;7.25;4.93;;;;;;;15.38;100.00;101214.06;5091636;28;20028;-50
2023/08/05 06:04:47;;;;;;;9.93;5.93;;;;;;;15.21;100.00;101190.09;5074451;28;20532;-49
2023/08/05 06:07:12;;;;;;;6.57;5.97;;;;;;;15.23;100.00;101176.78;5074474;28;20032;-50
2023/08/05 06:09:38;;;;;;;7.10;6.18;;;;;;;15.61;100.00;101239.59;5091106;28;20113;-49
2023/08/05 06:12:03;;;;;;;6.40;4.93;;;;;;;15.68;100.00;101255.13;5092230;28;20036;-56
2023/08/05 06:14:29;;;;;;;8.40;5.47;;;;;;;15.33;100.00;101189.53;5092327;28;20468;-55
2023/08/05 06:16:55;;;;;;;9.73;5.93;;;;;;;15.32;100.00;101168.41;5091958;28;20032;-51
2023/08/05 06:19:20;;;;;;;9.10;5.72;;;;;;;15.87;100.00;101251.63;5110108;28;20035;-56
2023/08/05 06:21:46;;;;;;;11.52;6.38;;;;;;;15.71;100.00;101195.75;5094170;28;20034;-52
2023/08/05 06:24:12;;;;;;;7.63;5.32;;;;;;;15.26;100.00;101097.97;5112385;28;20056;-53
2023/08/05 06:26:38;;;;;;;6.05;5.15;;;;;;;16.13;100.00;101203.41;5112653;28;20398;-48
2023/08/05 06:29:03;;;;;;;7.90;4.55;;;;;;;16.45;100.00;101223.94;5110260;28;20093;-55
2023/08/05 06:31:28;;;;;;;7.53;5.82;;;;;;;16.25;100.00;101145.25;5074460;28;20086;-55
2023/08/05 06:33:54;;;;;;;6.93;4.47;;;;;;;16.92;100.00;101212.66;5092179;28;20595;-54
2023/08/05 06:36:19;;;;;;;5.97;4.40;;;;;;;16.91;100.00;101165.75;5092062;28;20435;-56
2023/08/05 06:38:44;;;;;;;6.38;4.97;;;;;;;17.53;100.00;101218.22;5092327;28;20036;-56
2023/08/05 06:41:10;;;;;;;5.72;4.20;;;;;;;17.86;100.00;101222.53;5092056;28;20040;-57
2023/08/05 06:43:35;;;;;;;7.25;5.18;;;;;;;17.60;100.00;101147.75;5091903;28;20035;-50
2023/08/05 06:46:00;;;;;;;6.65;5.88;;;;;;;17.90;100.00;101169.97;5091778;28;20391;-53
2023/08/05 06:48:26;;;;;;;10.65;6.47;;;;;;;18.29;100.00;101217.44;5091302;28;20036;-54
2023/08/05 06:50:51;;;;;;;9.07;6.35;;;;;;;18.31;100.00;101197.72;5091858;28;20036;-54
2023/08/05 06:53:17;;;;;;;6.78;5.60;;;;;;;18.19;100.00;101165.59;5073976;28;20036;-51
2023/08/05 06:55:42;;;;;;;9.57;6.75;;;;;;;18.47;100.00;101198.56;5091917;28;20036;-51
2023/08/05 06:58:08;;;;;;;8.30;6.53;;;;;;;18.47;100.00;101182.56;5073600;28;20032;-49
2023/08/05 07:00:33;;;;;;;9.30;6.70;;;;;;;18.29;100.00;101148.16;5094715;28;20042;-50
2023/08/05 07:02:58;;;;;;;6.55;5.75;;;;;;;18.60;100.00;101190.69;5077364;28;20036;-57
2023/08/05 07:05:24;;;;;;;5.65;4.97;;;;;;;18.40;100.00;101167.00;5076833;28;20058;-55
2023/08/05 07:07:49;;;;;;;8.45;6.10;;;;;;;18.46;100.00;101161.31;5095146;28;20040;-50
2023/08/05 07:10:15;;;;;;;8.52;4.97;;;;;;;18.63;100.00;101200.31;5095408;28;20066;-53
2023/08/05 07:12:41;;;;;;;5.65;4.63;;;;;;;18.61;100.00;101211.09;5095347;28;20036;-51
2023/08/05 07:15:06;;;;;;;5.18;4.50;;;;;;;18.25;100.00;101163.44;5095300;28;20032;-54
2023/08/05 07:17:32;;;;;;;5.40;4.68;;;;;;;18.11;100.00;101130.56;5095538;28;20463;-53
2023/08/05 07:19:58;;;;;;;6.30;5.07;;;;;;;18.45;100.00;101199.56;5094841;28;20395;-51
2023/08/05 07:22:23;;;;;;;8.88;4.80;;;;;;;18.44;100.00;101193.41;5095130;28;20040;-49
2023/08/05 07:24:48;;;;;;;6.57;4.30;;;;;;;18.58;100.00;101205.94;5095138;28;20035;-49
2023/08/05 07:27:14;;;;;;;7.32;5.35;;;;;;;18.57;100.00;101195.34;5094959;28;20032;-55
2023/08/05 07:29:42;;;;;;;6.43;5.03;;;;;;;18.58;100.00;101173.09;5095051;28;20040;-50
2023/08/05 07:32:08;;;;;;;6.97;4.68;;;;;;;18.84;100.00;101191.03;5077116;28;20061;-52
2023/08/05 07:34:33;;;;;;;11.63;4.60;;;;;;;18.83;100.00;101184.84;5095242;28;20474;-50
2023/08/05 07:36:59;;;;;;;4.90;4.30;;;;;;;18.83;100.00;101184.84;5093999;28;20040;-56
2023/08/05 07:39:28;;;;;;;5.75;4.40;;;;;;;18.52;100.00;101126.34;5095237;28;20071;-51
2023/08/05 07:41:53;;;;;;;5.63;4.00;;;;;;;18.78;100.00;101172.75;5094967;28;20028;-53
2023/08/05 07:44:18;;;;;;;6.07;4.88;;;;;;;18.67;100.00;101161.88;5094751;28;20063;-50
2023/08/05 07:46:45;;;;;;;4.80;4.05;;;;;;;18.90;100.00;101183.53;5076627;28;20028;-60
2023/08/05 07:49:12;;;;;;;6.47;4.78;;;;;;;18.64;100.00;101122.06;5094799;28;20046;-51
2023/08/05 07:51:39;;;;;;;6.60;4.80;;;;;;;19.22;100.00;101181.53;5094095;28;20040;-55
2023/08/05 07:54:05;;;;;;;8.82;5.30;;;;;;;19.31;100.00;101140.91;5094675;28;20483;-53
2023/08/05 07:56:30;;;;;;;8.63;4.22;;;;;;;19.80;100.00;101172.47;5094528;28;20123;-55
2023/08/05 07:58:56;;;;;;;5.57;4.22;;;;;;;20.09;100.00;101171.41;5094313;28;20036;-53
2023/08/05 08:01:24;;;;;;;6.32;4.78;;;;;;;20.01;100.00;101112.28;5076420;28;20089;-49
2023/08/05 08:03:53;;;;;;;5.35;4.82;;;;;;;20.15;100.00;101097.03;5094573;28;20036;-52
2023/08/05 08:06:19;;;;;;;10.00;4.07;;;;;;;20.71;100.00;101161.84;5076850;28;20502;-56
2023/08/05 08:08:45;;;;;;;8.65;5.20;;;;;;;20.90;100.00;101169.47;5093761;28;20036;-51
2023/08/05 08:11:11;;;;;;;4.45;4.05;;;;;;;20.76;100.00;101131.13;5075620;28;20497;-54
2023/08/05 08:13:37;;;;;;;7.25;4.25;;;;;;;21.03;100.00;101172.97;5076159;28;20109;-56
2023/08/05 08:16:02;;;;;;;3.63;3.30;;;;;;;20.66;100.00;101116.69;5094378;28;20028;-53
2023/08/05 08:18:28;;;;;;;4.90;3.35;;;;;;;20.92;100.00;101149.66;5094155;28;20043;-54
2023/08/05 08:20:53;;;;;;;7.20;3.83;;;;;;;20.91;100.00;101141.72;5095311;28;20463;-51
2023/08/05 08:23:19;;;;;;;6.30;3.53;;;;;;;20.87;100.00;101149.09;5096385;28;20548;-51
2023/08/05 08:25:45;;;;;;;4.00;3.60;;;;;;;20.46;100.00;101086.97;5114331;28;20042;-53
2023/08/05 08:28:10;;;;;;;4.53;3.42;;;;;;;20.86;100.00;101133.16;5114255;28;20057;-53
2023/08/05 08:30:35;;;;;;;3.78;3.45;;;;;;;20.79;100.00;101081.91;5079419;28;20052;-50
2023/08/05 08:33:01;;;;;;;6.50;4.05;;;;;;;21.24;100.00;101145.56;5111051;28;20067;-51
2023/08/05 08:35:26;;;;;;;4.32;3.78;;;;;;;21.22;100.00;101139.44;5114350;28;20129;-53
2023/08/05 08:37:51;;;;;;;5.50;3.65;;;;;;;21.13;100.00;101136.59;5114194;28;20463;-54
2023/08/05 08:40:17;;;;;;;9.65;5.35;;;;;;;20.59;100.00;101075.28;5095974;28;20475;-49
2023/08/05 08:42:43;;;;;;;5.82;4.47;;;;;;;21.06;100.00;101108.50;5114285;28;20041;-53
2023/08/05 08:45:09;;;;;;;6.25;4.55;;;;;;;21.12;100.00;101126.84;5096135;28;20122;-50
2023/08/05 08:47:37;;;;;;;18.25;4.88;;;;;;;20.45;100.00;101031.75;5095797;28;20484;-50
2023/08/05 08:50:03;;;;;;;5.60;4.50;;;;;;;21.30;100.00;101106.78;5110879;28;20035;-49
2023/08/05 08:52:29;;;;;;;8.05;5.05;;;;;;;21.60;100.00;101099.16;5075383;28;20513;-51
2023/08/05 08:54:55;;;;;;;7.53;4.80;;;;;;;21.80;100.00;101095.03;5075485;28;20207;-52
2023/08/05 08:57:22;;;;;;;5.22;4.65;;;;;;;21.95;100.00;101090.38;5058428;28;20127;-55
2023/08/05 08:59:47;;;;;;;5.40;4.30;;;;;;;21.85;100.00;101103.56;5075480;28;20479;-52
2023/08/05 09:02:13;;;;;;;6.63;4.78;;;;;;;21.52;100.00;101120.31;5093526;28;20035;-53
2023/08/05 09:04:41;;;;;;;6.88;4.55;;;;;;;20.74;100.00;101041.25;5075255;28;20024;-51
2023/08/05 09:07:06;;;;;;;7.07;5.10;;;;;;;20.61;100.00;101102.78;5092758;28;20031;-52
2023/08/05 09:09:31;;;;;;;5.03;4.53;;;;;;;20.21;100.00;101088.59;5093603;28;20039;-50
2023/08/05 09:11:57;;;;;;;7.95;4.78;;;;;;;20.06;100.00;101083.44;5093066;28;20191;-52
2023/08/05 09:14:23;;;;;;;10.30;4.85;;;;;;;19.57;100.00;101016.44;5075223;28;20463;-53
2023/08/05 09:17:01;;;;;;;4.88;4.00;;;;;;;19.50;100.00;101036.47;5093228;28;20085;-54
2023/08/05 09:19:27;;;;;;;6.55;4.32;;;;;;;19.40;100.00;101046.06;5093223;28;20470;-52
2023/08/05 09:21:53;;;;;;;4.32;3.53;;;;;;;19.50;100.00;101060.50;5092079;28;20040;-51
2023/08/05 09:24:26;;;;;;;6.60;3.97;;;;;;;18.98;100.00;101023.84;5073901;28;20060;-54
2023/08/05 09:26:56;;;;;;;6.50;3.42;;;;;;;19.15;100.00;101044.09;5092604;28;20043;-53
2023/08/05 09:29:22;;;;;;;4.22;3.30;;;;;;;19.26;100.00;101041.59;5074941;28;20036;-57
2023/08/05 09:32:04;;;;;;;7.70;3.35;;;;;;;19.29;100.00;101035.22;5092893;28;20492;-51
2023/08/05 09:34:37;;;;;;;4.93;3.53;;;;;;;19.17;100.00;100993.31;5092742;28;20435;-56
2023/08/05 09:37:04;;;;;;;4.90;3.60;;;;;;;19.58;100.00;101050.19;5092605;28;20491;-52
2023/08/05 09:39:47;;;;;;;5.15;2.75;;;;;;;19.75;100.00;101049.06;5092004;28;20066;-59
2023/08/05 09:42:21;;;;;;;5.25;3.08;;;;;;;19.57;100.00;101022.63;5092708;28;20063;-53
2023/08/05 09:44:47;;;;;;;4.05;2.70;;;;;;;19.75;100.00;101043.72;5092686;28;20031;-52
2023/08/05 09:47:17;;;;;;;5.38;3.38;;;;;;;19.42;100.00;100991.63;5074427;28;20032;-53
2023/08/05 09:49:45;;;;;;;3.87;2.93;;;;;;;19.65;100.00;101043.47;5075361;28;20032;-51
2023/08/05 09:52:12;;;;;;;5.00;2.88;;;;;;;19.62;100.00;101031.19;5074539;28;20096;-59
2023/08/05 09:54:37;;;;;;;4.30;2.80;;;;;;;19.57;100.00;101005.75;5074631;28;20514;-54
2023/08/05 09:57:03;;;;;;;4.50;2.85;;;;;;;19.42;100.00;100969.41;5073787;28;20071;-56
2023/08/05 09:59:29;;;;;;;4.80;2.78;;;;;;;20.02;100.00;101050.72;5092527;28;20114;-49
2023/08/05 10:01:55;;;;;;;7.05;2.58;;;;;;;19.65;100.00;100963.34;5092287;28;20067;-52
2023/08/05 10:04:21;;;;;;;3.45;2.08;;;;;;;20.08;100.00;101036.09;5074301;28;20040;-55
2023/08/05 10:06:48;;;;;;;4.53;2.08;;;;;;;20.11;100.00;101012.66;5092399;28;20031;-55
2023/08/05 10:09:13;;;;;;;5.18;2.35;;;;;;;20.34;100.00;101037.88;5074108;28;20494;-57
2023/08/05 10:11:39;;;;;;;4.75;2.00;;;;;;;20.48;100.00;101024.38;5091505;28;20115;-50
2023/08/05 10:14:06;;;;;;;3.53;2.20;;;;;;;20.61;100.00;101035.03;5074094;28;20119;-48
2023/08/05 10:16:31;;;;;;;3.58;2.13;;;;;;;20.23;100.00;100977.06;5074165;28;20036;-50
2023/08/05 10:18:57;;;;;;;4.47;2.20;;;;;;;20.37;100.00;101040.31;5074061;28;20035;-51
2023/08/05 10:21:38;;;;;;;6.68;2.70;;;;;;;19.84;100.00;100968.31;5092314;28;20024;-55
2023/08/05 10:24:04;;;;;;;3.67;3.08;;;;;;;19.81;100.00;100960.50;5092248;28;20123;-50
2023/08/05 10:26:47;;;;;;;6.13;3.03;;;;;;;20.12;100.00;101029.56;5074122;28;20059;-53
2023/08/05 10:29:28;;;;;;;5.38;3.30;;;;;;;19.94;100.00;100998.75;5091913;28;20036;-52
2023/08/05 10:32:14;;;;;;;5.15;3.17;;;;;;;19.97;100.00;101020.78;5092177;28;20035;-53
2023/08/05 10:34:39;;;;;;;5.80;3.47;;;;;;;19.69;100.00;101009.41;5060654;28;20051;-55
2023/08/05 10:37:05;;;;;;;5.35;3.50;;;;;;;19.25;100.00;100950.94;5096168;28;20044;-53
2023/08/05 10:39:36;;;;;;;7.82;4.22;;;;;;;19.46;100.00;101019.81;5096137;28;20032;-56
2023/08/05 10:42:30;;;;;;;6.82;3.88;;;;;;;18.98;100.00;100977.63;5096169;28;20058;-53
2023/08/05 10:44:56;;;;;;;6.50;4.65;;;;;;;18.63;100.00;100953.22;5095128;28;20424;-56
2023/08/05 10:47:22;;;;;;;6.30;5.20;;;;;;;18.89;100.00;100989.75;5094583;28;20074;-53
2023/08/05 10:49:50;;;;;;;7.43;4.53;;;;;;;18.47;100.00;100926.69;5095761;28;20471;-49
2023/08/05 10:52:18;;;;;;;6.38;4.57;;;;;;;17.83;100.00;100825.13;5077679;28;20032;-50
2023/08/05 10:54:46;;;;;;;6.25;4.35;;;;;;;18.70;100.00;100969.69;5095832;28;20028;-54
2023/08/05 10:57:34;;;;;;;7.32;3.85;;;;;;;18.68;100.00;100985.78;5095743;28;20406;-58
2023/08/05 11:00:00;;;;;;;4.55;4.00;;;;;;;18.18;100.00;100917.00;5082741;28;20444;-54
2023/08/05 11:02:26;;;;;;;7.57;3.92;;;;;;;18.27;100.00;100977.69;5095630;28;20398;-53
2023/08/05 11:05:04;;;;;;;4.78;3.88;;;;;;;17.78;100.00;100915.06;5095696;28;20036;-51
2023/08/05 11:07:30;;;;;;;7.03;3.65;;;;;;;18.11;100.00;100998.22;5095572;28;20454;-54
2023/08/05 11:09:56;;;;;;;6.13;4.25;;;;;;;18.02;100.00;100985.47;5095498;28;20036;-52